createdAt,value
2022-11-04T00:00:28.524Z,1005
2022-11-04T00:05:29.493Z,1005
2022-11-04T00:10:18.511Z,1005
2022-11-04T00:15:24.738Z,1005
2022-11-04T00:20:30.659Z,1005
2022-11-04T00:25:19.675Z,1006
2022-11-04T00:30:25.743Z,1006
2022-11-04T00:35:31.857Z,1006
2022-11-04T00:40:20.890Z,1006
2022-11-04T00:45:26.876Z,1006
2022-11-04T00:50:15.835Z,1006
2022-11-04T00:55:21.932Z,1006
2022-11-04T01:00:27.973Z,1006
2022-11-04T01:05:16.947Z,1006
2022-11-04T01:10:22.953Z,1006
2022-11-04T01:15:29.046Z,1006
2022-11-04T01:20:18.211Z,1006
2022-11-04T01:25:24.112Z,1006
2022-11-04T01:30:30.212Z,1006
2022-11-04T01:35:19.333Z,1006
2022-11-04T01:40:25.286Z,1006
2022-11-04T01:45:31.499Z,1006
2022-11-04T01:50:20.475Z,1006
2022-11-04T01:55:26.496Z,1006
2022-11-04T02:00:32.535Z,1006
2022-11-04T02:05:21.581Z,1006
2022-11-04T02:10:27.575Z,1006
2022-11-04T02:15:16.616Z,1006
2022-11-04T02:20:22.813Z,1006
2022-11-04T02:25:28.777Z,1006
2022-11-04T02:30:17.801Z,1006
2022-11-04T02:35:23.883Z,1006
2022-11-04T02:40:35.413Z,1007
2022-11-04T02:45:17.997Z,1007
2022-11-04T02:50:24.195Z,1007
2022-11-04T02:55:30.129Z,1007
2022-11-04T03:00:19.195Z,1007
2022-11-04T03:05:25.031Z,1007
2022-11-04T03:10:31.067Z,1007
2022-11-04T03:15:20.139Z,1007
2022-11-04T03:20:26.240Z,1007
2022-11-04T03:25:32.259Z,1007
2022-11-04T03:30:21.281Z,1007
2022-11-04T03:35:27.386Z,1007
2022-11-04T03:40:16.469Z,1007
2022-11-04T03:45:22.433Z,1007
2022-11-04T03:50:28.564Z,1007
2022-11-04T03:55:17.527Z,1007
2022-11-04T04:00:23.645Z,1007
2022-11-04T04:05:28.928Z,1007
2022-11-04T04:10:17.979Z,1007
2022-11-04T04:15:24.036Z,1007
2022-11-04T04:20:30.165Z,1007
2022-11-04T04:25:19.119Z,1007
2022-11-04T04:30:25.216Z,1007
2022-11-04T04:35:31.328Z,1007
2022-11-04T04:40:24.885Z,1007
2022-11-04T04:45:26.068Z,1007
2022-11-04T04:50:32.233Z,1007
2022-11-04T04:55:21.962Z,1007
2022-11-04T05:00:27.318Z,1007
2022-11-04T05:05:20.680Z,1007
2022-11-04T05:10:21.595Z,1007
2022-11-04T05:15:27.687Z,1007
2022-11-04T05:20:16.763Z,1006
2022-11-04T05:25:22.905Z,1006
2022-11-04T05:30:28.838Z,1006
2022-11-04T05:35:17.904Z,1006
2022-11-04T05:40:23.962Z,1006
2022-11-04T05:45:29.689Z,1006
2022-11-04T05:50:18.722Z,1006
2022-11-04T05:55:24.927Z,1006
2022-11-04T06:00:30.848Z,1006
2022-11-04T06:05:20.215Z,1006
2022-11-04T06:10:26.240Z,1006
2022-11-04T06:15:32.315Z,1006
2022-11-04T06:20:21.431Z,1007
2022-11-04T06:25:27.502Z,1007
2022-11-04T06:30:18.520Z,1007
2022-11-04T06:35:22.575Z,1007
2022-11-04T06:40:28.545Z,1007
2022-11-04T06:45:17.200Z,1007
2022-11-04T06:50:23.302Z,1007
2022-11-04T06:55:29.517Z,1007
2022-11-04T07:00:21.205Z,1007
2022-11-04T07:05:23.732Z,1007
2022-11-04T07:10:29.785Z,1008
2022-11-04T07:15:23.186Z,1007
2022-11-04T07:20:24.959Z,1007
2022-11-04T07:25:31.052Z,1007
2022-11-04T07:30:19.960Z,1007
2022-11-04T07:35:26.072Z,1007
2022-11-04T07:40:32.199Z,1007
2022-11-04T07:45:20.886Z,1007
2022-11-04T07:50:27.150Z,1007
2022-11-04T07:55:16.020Z,1007
2022-11-04T08:00:22.189Z,1007
2022-11-04T08:05:29.970Z,1006
2022-11-04T08:10:17.427Z,1007
2022-11-04T08:15:23.766Z,1007
2022-11-04T08:20:29.553Z,1007
2022-11-04T08:25:18.657Z,1007
2022-11-04T08:30:24.751Z,1007
2022-11-04T08:35:30.754Z,1007
2022-11-04T08:40:19.941Z,1007
2022-11-04T08:45:27.779Z,1007
2022-11-04T08:50:31.664Z,1007
2022-11-04T08:55:20.586Z,1007
2022-11-04T09:00:26.777Z,1008
2022-11-04T09:05:32.086Z,1007
2022-11-04T09:10:21.065Z,1007
2022-11-04T09:15:27.118Z,1007
2022-11-04T09:20:16.301Z,1008
2022-11-04T09:25:22.287Z,1008
2022-11-04T09:30:28.384Z,1008
2022-11-04T09:35:17.410Z,1007
2022-11-04T09:40:23.412Z,1007
2022-11-04T09:45:29.417Z,1007
2022-11-04T09:50:18.340Z,1007
2022-11-04T09:55:24.405Z,1007
2022-11-04T10:00:30.420Z,1007
2022-11-04T10:05:18.843Z,1007
2022-11-04T10:10:24.770Z,1007
2022-11-04T10:15:30.889Z,1007
2022-11-04T10:20:20.139Z,1007
2022-11-04T10:25:25.983Z,1007
2022-11-04T10:30:32.181Z,1007
2022-11-04T10:35:21.055Z,1007
2022-11-04T10:40:27.451Z,1007
2022-11-04T10:45:15.891Z,1007
2022-11-04T10:50:28.948Z,1007
2022-11-04T10:55:28.097Z,1007
2022-11-04T11:00:17.163Z,1007
2022-11-04T11:05:23.460Z,1007
2022-11-04T11:10:29.504Z,1007
2022-11-04T11:15:18.517Z,1007
2022-11-04T11:20:24.770Z,1007
2022-11-04T11:25:30.683Z,1007
2022-11-04T11:30:19.769Z,1007
2022-11-04T11:35:25.810Z,1007
2022-11-04T11:40:31.919Z,1007
2022-11-04T11:45:20.533Z,1007
2022-11-04T11:50:26.682Z,1007
2022-11-04T11:55:15.749Z,1007
2022-11-04T12:00:37.638Z,1007
2022-11-04T12:06:19.189Z,1007
2022-11-04T12:10:24.142Z,1007
2022-11-04T12:15:23.310Z,1007
2022-11-04T12:20:29.338Z,1007
2022-11-04T12:25:18.241Z,1007
2022-11-04T12:30:32.250Z,1007
2022-11-04T12:35:30.540Z,1007
2022-11-04T12:40:19.565Z,1007
2022-11-04T12:45:25.091Z,1007
2022-11-04T12:50:31.211Z,1007
2022-11-04T12:55:20.203Z,1007
2022-11-04T13:00:26.484Z,1007
2022-11-04T13:05:32.037Z,1007
2022-11-04T13:10:21.114Z,1007
2022-11-04T13:15:27.182Z,1007
2022-11-04T13:20:16.292Z,1007
2022-11-04T13:25:22.414Z,1007
2022-11-04T13:30:28.320Z,1007
2022-11-04T13:35:17.464Z,1007
2022-11-04T13:40:23.440Z,1007
2022-11-04T13:45:28.762Z,1007
2022-11-04T13:50:17.755Z,1007
2022-11-04T13:55:23.856Z,1007
2022-11-04T14:00:30.139Z,1007
2022-11-04T14:05:19.259Z,1007
2022-11-04T14:10:25.353Z,1007
2022-11-04T14:15:31.342Z,1008
2022-11-04T14:20:20.512Z,1008
2022-11-04T14:25:26.452Z,1008
2022-11-04T14:30:32.532Z,1008
2022-11-04T14:35:21.553Z,1008
2022-11-04T14:40:27.611Z,1008
2022-11-04T14:45:16.297Z,1008
2022-11-04T14:50:22.421Z,1008
2022-11-04T14:55:28.475Z,1008
2022-11-04T15:00:18.483Z,1008
2022-11-04T15:05:22.975Z,1008
2022-11-04T15:10:28.945Z,1008
2022-11-04T15:15:17.963Z,1008
2022-11-04T15:20:24.122Z,1008
2022-11-04T15:25:30.121Z,1008
2022-11-04T15:30:19.116Z,1008
2022-11-04T15:35:25.246Z,1008
2022-11-04T15:40:31.307Z,1008
2022-11-04T15:45:20.198Z,1008
2022-11-04T15:50:26.125Z,1008
2022-11-04T15:55:32.164Z,1008
2022-11-04T16:00:21.352Z,1008
2022-11-04T16:05:26.574Z,1008
2022-11-04T16:10:15.580Z,1009
2022-11-04T16:15:21.702Z,1009
2022-11-04T16:20:27.676Z,1009
2022-11-04T16:25:16.766Z,1009
2022-11-04T16:30:22.778Z,1009
2022-11-04T16:35:28.871Z,1009
2022-11-04T16:40:17.933Z,1009
2022-11-04T16:45:23.812Z,1009
2022-11-04T16:50:29.745Z,1009
2022-11-04T16:55:18.850Z,1009
2022-11-04T17:00:24.930Z,1009
2022-11-04T17:05:31.204Z,1009
2022-11-04T17:10:20.200Z,1009
2022-11-04T17:15:26.302Z,1009
2022-11-04T17:20:32.369Z,1009
2022-11-04T17:25:21.370Z,1009
2022-11-04T17:30:27.507Z,1009
2022-11-04T17:35:16.491Z,1009
2022-11-04T17:40:22.582Z,1009
2022-11-04T17:45:28.374Z,1009
2022-11-04T17:50:17.333Z,1009
2022-11-04T17:55:27.541Z,1009
2022-11-04T18:00:29.929Z,1009
2022-11-04T18:05:17.822Z,1009
2022-11-04T18:10:24.639Z,1009
2022-11-04T18:15:30.076Z,1009
2022-11-04T18:20:19.076Z,1009
2022-11-04T18:25:24.974Z,1009
2022-11-04T18:30:31.064Z,1010
2022-11-04T18:35:20.088Z,1010
2022-11-04T18:40:26.204Z,1010
2022-11-04T18:45:32.102Z,1010
2022-11-04T18:50:21.091Z,1010
2022-11-04T18:55:27.229Z,1010
2022-11-04T19:00:17.435Z,1010
2022-11-04T19:05:21.701Z,1010
2022-11-04T19:10:27.569Z,1010
2022-11-04T19:15:16.643Z,1010
2022-11-04T19:20:22.810Z,1010
2022-11-04T19:25:28.719Z,1010
2022-11-04T19:30:17.797Z,1010
2022-11-04T19:35:23.951Z,1010
2022-11-04T19:40:29.999Z,1010
2022-11-04T19:45:18.587Z,1010
2022-11-04T19:50:24.765Z,1010
2022-11-04T19:55:30.763Z,1010
2022-11-04T20:00:20.007Z,1010
2022-11-04T20:05:26.214Z,1010
2022-11-04T20:10:32.267Z,1011
2022-11-04T20:15:21.318Z,1011
2022-11-04T20:20:27.336Z,1011
2022-11-04T20:25:16.431Z,1011
2022-11-04T20:30:22.392Z,1011
2022-11-04T20:35:28.512Z,1011
2022-11-04T20:40:17.678Z,1011
2022-11-04T20:45:23.370Z,1011
2022-11-04T20:50:29.479Z,1011
2022-11-04T20:55:18.590Z,1011
2022-11-04T21:00:24.670Z,1011
2022-11-04T21:05:29.660Z,1011
2022-11-04T21:10:18.912Z,1011
2022-11-04T21:15:24.954Z,1011
2022-11-04T21:20:31.741Z,1011
2022-11-04T21:25:19.870Z,1011
2022-11-04T21:30:31.961Z,1012
2022-11-04T21:35:32.038Z,1012
2022-11-04T21:40:21.100Z,1012
2022-11-04T21:45:26.953Z,1012
2022-11-04T21:50:18.144Z,1012
2022-11-04T21:55:22.978Z,1012
2022-11-04T22:00:28.200Z,1012
2022-11-04T22:05:17.457Z,1012
2022-11-04T22:10:23.498Z,1012
2022-11-04T22:15:29.609Z,1012
2022-11-04T22:20:18.767Z,1012
2022-11-04T22:25:24.678Z,1012
2022-11-04T22:30:30.711Z,1012
2022-11-04T22:35:19.864Z,1012
2022-11-04T22:40:25.827Z,1012
2022-11-04T22:45:31.549Z,1012
2022-11-04T22:50:20.642Z,1012
2022-11-04T22:55:26.677Z,1012
2022-11-04T23:00:15.854Z,1012
2022-11-04T23:05:22.148Z,1012
2022-11-04T23:10:28.118Z,1012
2022-11-04T23:15:17.223Z,1012
2022-11-04T23:20:23.419Z,1012
2022-11-04T23:25:29.288Z,1012
2022-11-04T23:30:18.280Z,1012
2022-11-04T23:35:24.449Z,1012
2022-11-04T23:40:30.470Z,1012
2022-11-04T23:45:19.128Z,1012
2022-11-04T23:50:25.316Z,1012
2022-11-04T23:55:31.381Z,1012
